Time;durP1;ratioP1;P1;durP2;ratioP2;P2;SDS_P1;SDS_P2;PMS_P1;PMS_P2;Temp;Humidity;BMP_temperature;BMP_pressure;BME280_temperature;BME280_humidity;BME280_pressure;Samples;Min_cycle;Max_cycle;Signal;HPM_P1;HPM_P2
2021/10/16 00:02:00;;;;;;;;;;;6.70;99.60;;;;;;5011498;28;19921;-74
2021/10/16 00:04:26;;;;;;;;;;;6.80;99.60;;;;;;5018342;28;19989;-75
2021/10/16 00:06:51;;;;;;;;;;;6.90;99.70;;;;;;5012879;28;20016;-77
2021/10/16 00:09:17;;;;;;;;;;;7.00;99.70;;;;;;5015755;28;19939;-75
2021/10/16 00:11:42;;;;;;;;;;;7.10;99.70;;;;;;5015981;28;19913;-76
2021/10/16 00:14:08;;;;;;;;;;;7.20;99.70;;;;;;5017161;28;19932;-77
2021/10/16 00:16:34;;;;;;;;;;;7.30;99.70;;;;;;5018692;28;19913;-78
2021/10/16 00:18:59;;;;;;;;;;;7.40;99.70;;;;;;5017942;28;20383;-75
2021/10/16 00:21:25;;;;;;;;;;;7.40;99.70;;;;;;5017978;28;20301;-78
2021/10/16 00:23:50;;;;;;;;;;;7.40;99.60;;;;;;5018000;28;20405;-77
2021/10/16 00:26:16;;;;;;;;;;;7.30;99.50;;;;;;5016230;28;19965;-76
2021/10/16 00:28:41;;;;;;;;;;;7.40;99.60;;;;;;5017837;28;19966;-76
2021/10/16 00:31:07;;;;;;;;;;;7.40;99.60;;;;;;5017097;28;20278;-78
2021/10/16 00:33:32;;;;;;;;;;;7.50;99.70;;;;;;5015874;28;20251;-77
2021/10/16 00:35:58;;;;;;;;;;;7.50;99.70;;;;;;5018583;28;20209;-77
2021/10/16 00:38:24;;;;;;;;;;;7.50;99.60;;;;;;5018089;28;19963;-75
2021/10/16 00:40:50;;;;;;;;;;;7.50;99.60;;;;;;5015407;28;19917;-75
2021/10/16 00:43:15;;;;;;;;;;;7.50;99.60;;;;;;5015421;28;19969;-75
2021/10/16 00:45:40;;;;;;;;;;;7.50;99.50;;;;;;5014234;28;19917;-77
2021/10/16 00:48:06;;;;;;;;;;;7.50;99.50;;;;;;5015675;28;20082;-77
2021/10/16 00:50:31;;;;;;;;;;;7.50;99.50;;;;;;5015336;28;19940;-74
2021/10/16 00:52:57;;;;;;;;;;;7.50;99.60;;;;;;5016704;28;19918;-79
2021/10/16 00:55:23;;;;;;;;;;;7.50;99.50;;;;;;5014215;28;19978;-77
2021/10/16 00:57:49;;;;;;;;;;;7.40;99.50;;;;;;5013281;28;20296;-77
2021/10/16 01:00:15;;;;;;;;;;;7.40;99.50;;;;;;5017847;28;19928;-76
2021/10/16 01:02:41;;;;;;;;;;;7.50;99.50;;;;;;5018999;28;19917;-75
2021/10/16 01:05:07;;;;;;;;;;;7.50;99.50;;;;;;5018006;28;19921;-75
2021/10/16 01:07:35;;;;;;;;;;;7.50;99.50;;;;;;5018104;28;20011;-75
2021/10/16 01:10:00;;;;;;;;;;;7.50;99.50;;;;;;5011995;28;19960;-78
2021/10/16 01:12:28;;;;;;;;;;;7.50;99.50;;;;;;5018823;28;20206;-76
2021/10/16 01:14:58;;;;;;;;;;;7.60;99.50;;;;;;5011226;28;19913;-77
2021/10/16 01:17:24;;;;;;;;;;;7.60;99.50;;;;;;5017911;28;20329;-75
2021/10/16 01:19:53;;;;;;;;;;;7.60;99.50;;;;;;5014639;28;19913;-75
2021/10/16 01:22:19;;;;;;;;;;;7.70;99.50;;;;;;5014408;28;19993;-75
2021/10/16 01:24:44;;;;;;;;;;;7.70;99.50;;;;;;5020626;28;19924;-74
2021/10/16 01:27:11;;;;;;;;;;;7.70;99.50;;;;;;5015883;28;19928;-75
2021/10/16 01:29:37;;;;;;;;;;;7.70;99.50;;;;;;5015191;28;19985;-75
2021/10/16 01:32:03;;;;;;;;;;;7.70;99.50;;;;;;5017049;28;19924;-77
2021/10/16 01:34:29;;;;;;;;;;;7.70;99.40;;;;;;5020546;28;20048;-75
2021/10/16 01:36:55;;;;;;;;;;;7.70;99.40;;;;;;5022259;28;20039;-77
2021/10/16 01:39:21;;;;;;;;;;;7.70;99.40;;;;;;5017248;28;19989;-74
2021/10/16 01:41:48;;;;;;;;;;;7.70;99.40;;;;;;5018980;28;19960;-78
2021/10/16 01:44:14;;;;;;;;;;;7.70;99.40;;;;;;5022069;28;19929;-77
2021/10/16 01:46:39;;;;;;;;;;;7.60;99.40;;;;;;5020474;28;19916;-76
2021/10/16 01:49:09;;;;;;;;;;;7.60;99.40;;;;;;5019651;28;20311;-76
2021/10/16 01:51:35;;;;;;;;;;;7.70;99.50;;;;;;5021509;28;19917;-75
2021/10/16 01:54:00;;;;;;;;;;;7.70;99.50;;;;;;5019401;28;19928;-76
2021/10/16 01:56:26;;;;;;;;;;;7.70;99.50;;;;;;5011208;28;19940;-76
2021/10/16 01:58:51;;;;;;;;;;;7.60;99.40;;;;;;5019704;28;20043;-76
2021/10/16 02:01:17;;;;;;;;;;;7.60;99.40;;;;;;5019671;28;20723;-78
2021/10/16 02:03:42;;;;;;;;;;;7.60;99.50;;;;;;5015348;28;19932;-75
2021/10/16 02:06:08;;;;;;;;;;;7.60;99.50;;;;;;5015934;28;20125;-76
2021/10/16 02:08:34;;;;;;;;;;;7.60;99.40;;;;;;5018706;28;19917;-75
2021/10/16 02:10:59;;;;;;;;;;;7.60;99.50;;;;;;5019655;28;20056;-77
2021/10/16 02:13:25;;;;;;;;;;;7.60;99.50;;;;;;5019534;28;20035;-77
2021/10/16 02:15:50;;;;;;;;;;;7.60;99.50;;;;;;5023829;28;19929;-75
2021/10/16 02:18:16;;;;;;;;;;;7.70;99.50;;;;;;5019898;28;19928;-78
2021/10/16 02:20:41;;;;;;;;;;;7.60;99.50;;;;;;5020130;28;20016;-75
2021/10/16 02:23:07;;;;;;;;;;;7.60;99.40;;;;;;5018767;28;19924;-76
2021/10/16 02:25:32;;;;;;;;;;;7.60;99.50;;;;;;5017613;28;19924;-77
2021/10/16 02:27:58;;;;;;;;;;;7.60;99.40;;;;;;5018139;28;20215;-77
2021/10/16 02:30:23;;;;;;;;;;;7.50;99.50;;;;;;5021358;28;20000;-74
2021/10/16 02:32:49;;;;;;;;;;;7.50;99.50;;;;;;5014665;28;19924;-76
2021/10/16 02:35:14;;;;;;;;;;;7.50;99.50;;;;;;5019680;28;19979;-78
2021/10/16 02:37:40;;;;;;;;;;;7.50;99.50;;;;;;5018005;28;20008;-76
2021/10/16 02:40:05;;;;;;;;;;;7.50;99.50;;;;;;5017231;28;20012;-75
2021/10/16 02:42:31;;;;;;;;;;;7.60;99.50;;;;;;5032345;28;20362;-78
2021/10/16 02:44:57;;;;;;;;;;;7.50;99.50;;;;;;5019608;28;19921;-77
2021/10/16 02:47:24;;;;;;;;;;;7.50;99.50;;;;;;5019761;28;20399;-77
2021/10/16 02:49:49;;;;;;;;;;;7.50;99.50;;;;;;5021737;28;20344;-76
2021/10/16 02:52:15;;;;;;;;;;;7.50;99.50;;;;;;5019110;28;19973;-75
2021/10/16 02:54:40;;;;;;;;;;;7.50;99.50;;;;;;5023324;28;20309;-77
2021/10/16 02:57:06;;;;;;;;;;;7.40;99.40;;;;;;5016796;28;19996;-78
2021/10/16 02:59:31;;;;;;;;;;;7.40;99.40;;;;;;5019268;28;21466;-74
2021/10/16 03:01:57;;;;;;;;;;;7.40;99.40;;;;;;5018484;28;20292;-77
2021/10/16 03:04:22;;;;;;;;;;;7.30;99.40;;;;;;5017918;28;19917;-77
2021/10/16 03:06:48;;;;;;;;;;;7.40;99.40;;;;;;5019915;28;19939;-75
2021/10/16 03:09:17;;;;;;;;;;;7.40;99.40;;;;;;5021103;28;19932;-76
2021/10/16 03:11:43;;;;;;;;;;;7.30;99.40;;;;;;5020663;28;20374;-74
2021/10/16 03:14:08;;;;;;;;;;;7.30;99.40;;;;;;5014635;28;19952;-74
2021/10/16 03:16:34;;;;;;;;;;;7.30;99.40;;;;;;5019533;28;20337;-75
2021/10/16 03:18:59;;;;;;;;;;;7.30;99.40;;;;;;5017607;28;20390;-77
2021/10/16 03:21:25;;;;;;;;;;;7.30;99.50;;;;;;5018427;28;19984;-76
2021/10/16 03:23:50;;;;;;;;;;;7.30;99.50;;;;;;5018745;28;19936;-75
2021/10/16 03:26:16;;;;;;;;;;;7.20;99.40;;;;;;5018530;28;21404;-78
2021/10/16 03:28:41;;;;;;;;;;;7.20;99.40;;;;;;5018098;28;19913;-74
2021/10/16 03:31:07;;;;;;;;;;;7.20;99.50;;;;;;5019864;28;20186;-76
2021/10/16 03:33:32;;;;;;;;;;;7.30;99.50;;;;;;5018468;28;19948;-77
2021/10/16 03:35:58;;;;;;;;;;;7.20;99.40;;;;;;5017367;28;20028;-74
2021/10/16 03:38:23;;;;;;;;;;;7.20;99.50;;;;;;5019320;28;19913;-75
2021/10/16 03:40:49;;;;;;;;;;;7.20;99.50;;;;;;5019057;28;20027;-78
2021/10/16 03:43:15;;;;;;;;;;;7.20;99.50;;;;;;5017825;28;21118;-78
2021/10/16 03:45:40;;;;;;;;;;;7.20;99.50;;;;;;5020016;28;19917;-74
2021/10/16 03:48:06;;;;;;;;;;;7.20;99.50;;;;;;5018173;28;19949;-77
2021/10/16 03:50:32;;;;;;;;;;;7.20;99.40;;;;;;5012850;28;20355;-74
2021/10/16 03:52:58;;;;;;;;;;;7.10;99.40;;;;;;5021360;28;20007;-74
2021/10/16 03:55:23;;;;;;;;;;;7.10;99.40;;;;;;5021154;28;19996;-75
2021/10/16 03:57:50;;;;;;;;;;;7.00;99.40;;;;;;5017602;28;19992;-76
2021/10/16 04:00:18;;;;;;;;;;;7.00;99.50;;;;;;5020054;28;20125;-76
2021/10/16 04:02:47;;;;;;;;;;;6.90;99.40;;;;;;5015046;28;19933;-76
2021/10/16 04:05:12;;;;;;;;;;;6.80;99.50;;;;;;5018925;28;19920;-77
2021/10/16 04:07:38;;;;;;;;;;;6.90;99.50;;;;;;5017266;28;20015;-75
2021/10/16 04:10:04;;;;;;;;;;;6.80;99.50;;;;;;5018671;28;20305;-75
2021/10/16 04:12:29;;;;;;;;;;;6.80;99.50;;;;;;5018008;28;19962;-77
2021/10/16 04:14:55;;;;;;;;;;;6.70;99.50;;;;;;5021287;28;20436;-74
2021/10/16 04:17:20;;;;;;;;;;;6.70;99.50;;;;;;5018421;28;20095;-75
2021/10/16 04:19:45;;;;;;;;;;;6.60;99.50;;;;;;5021767;28;20353;-65
2021/10/16 04:22:11;;;;;;;;;;;6.60;99.60;;;;;;5013052;28;20110;-65
2021/10/16 04:24:36;;;;;;;;;;;6.60;99.60;;;;;;5021144;28;19925;-65
2021/10/16 04:27:02;;;;;;;;;;;6.50;99.60;;;;;;5018520;28;19929;-65
2021/10/16 04:29:27;;;;;;;;;;;6.50;99.50;;;;;;5022712;28;20280;-65
2021/10/16 04:31:53;;;;;;;;;;;6.50;99.60;;;;;;5017355;28;20107;-65
2021/10/16 04:34:18;;;;;;;;;;;6.50;99.60;;;;;;5022058;28;20218;-65
2021/10/16 04:36:44;;;;;;;;;;;6.50;99.60;;;;;;5017523;28;19953;-65
2021/10/16 04:39:09;;;;;;;;;;;6.50;99.60;;;;;;5017633;28;19924;-65
2021/10/16 04:41:35;;;;;;;;;;;6.60;99.70;;;;;;5016658;28;20432;-65
2021/10/16 04:44:01;;;;;;;;;;;6.60;99.70;;;;;;5016209;28;19936;-65
2021/10/16 04:46:26;;;;;;;;;;;6.60;99.70;;;;;;5020613;28;22177;-65
2021/10/16 04:48:52;;;;;;;;;;;6.70;99.80;;;;;;5019899;28;19917;-65
2021/10/16 04:51:18;;;;;;;;;;;6.70;99.70;;;;;;5018438;28;19999;-65
2021/10/16 04:53:43;;;;;;;;;;;6.70;99.70;;;;;;5018275;28;20428;-65
2021/10/16 04:56:09;;;;;;;;;;;6.70;99.70;;;;;;5019677;28;19919;-65
2021/10/16 04:58:34;;;;;;;;;;;6.70;99.70;;;;;;5014256;28;19917;-65
2021/10/16 05:01:00;;;;;;;;;;;6.70;99.70;;;;;;5011778;28;20299;-65
2021/10/16 05:03:25;;;;;;;;;;;6.60;99.70;;;;;;5020090;28;20020;-65
2021/10/16 05:05:52;;;;;;;;;;;6.60;99.60;;;;;;5017138;28;19994;-65
2021/10/16 05:08:18;;;;;;;;;;;6.50;99.60;;;;;;5017463;28;19945;-65
2021/10/16 05:10:43;;;;;;;;;;;6.50;99.60;;;;;;5019576;28;19997;-65
2021/10/16 05:13:09;;;;;;;;;;;6.40;99.70;;;;;;5015711;28;19975;-65
2021/10/16 05:15:34;;;;;;;;;;;6.40;99.70;;;;;;5013933;28;20030;-65
2021/10/16 05:18:00;;;;;;;;;;;6.40;99.80;;;;;;5013690;28;20088;-65
2021/10/16 05:20:25;;;;;;;;;;;6.40;99.80;;;;;;5013167;28;19913;-65
2021/10/16 05:22:51;;;;;;;;;;;6.40;99.80;;;;;;5012818;28;20325;-65
2021/10/16 05:25:17;;;;;;;;;;;6.40;99.80;;;;;;5019912;28;19921;-65
2021/10/16 05:27:42;;;;;;;;;;;6.40;99.80;;;;;;5018907;28;19921;-66
2021/10/16 05:30:08;;;;;;;;;;;6.40;99.80;;;;;;5012037;28;19943;-65
2021/10/16 05:32:34;;;;;;;;;;;6.40;99.80;;;;;;5015466;28;19913;-65
2021/10/16 05:35:00;;;;;;;;;;;6.40;99.80;;;;;;5017878;28;19913;-64
2021/10/16 05:37:25;;;;;;;;;;;6.40;99.80;;;;;;5020567;28;20019;-65
2021/10/16 05:39:51;;;;;;;;;;;6.30;99.80;;;;;;5013631;28;19924;-65
2021/10/16 05:42:16;;;;;;;;;;;6.30;99.80;;;;;;5013574;28;19928;-65
2021/10/16 05:44:42;;;;;;;;;;;6.30;99.80;;;;;;5019248;28;19917;-65
2021/10/16 05:47:07;;;;;;;;;;;6.30;99.80;;;;;;5016601;28;20148;-65
2021/10/16 05:49:33;;;;;;;;;;;6.30;99.80;;;;;;5019348;28;19920;-64
2021/10/16 05:51:58;;;;;;;;;;;6.30;99.80;;;;;;5018416;28;19924;-65
2021/10/16 05:54:24;;;;;;;;;;;6.30;99.80;;;;;;5020894;28;19913;-64
2021/10/16 05:56:49;;;;;;;;;;;6.40;99.80;;;;;;5017953;28;19917;-64
2021/10/16 05:59:15;;;;;;;;;;;6.40;99.90;;;;;;5017397;28;20313;-64
2021/10/16 06:01:40;;;;;;;;;;;6.40;99.90;;;;;;5015362;28;20010;-64
2021/10/16 06:04:06;;;;;;;;;;;6.40;99.80;;;;;;5013334;28;19921;-64
2021/10/16 06:06:31;;;;;;;;;;;6.50;99.80;;;;;;5016654;28;20252;-64
2021/10/16 06:08:57;;;;;;;;;;;6.50;99.80;;;;;;5028776;28;20011;-64
2021/10/16 06:11:22;;;;;;;;;;;6.50;99.80;;;;;;5009736;28;19932;-63
2021/10/16 06:13:48;;;;;;;;;;;6.50;99.80;;;;;;5009262;28;20003;-64
2021/10/16 06:16:13;;;;;;;;;;;6.50;99.80;;;;;;5005834;28;19917;-64
2021/10/16 06:18:41;;;;;;;;;;;6.50;99.80;;;;;;5025176;28;19913;-63
2021/10/16 06:21:06;;;;;;;;;;;6.50;99.80;;;;;;5008992;28;20494;-64
2021/10/16 06:23:32;;;;;;;;;;;6.40;99.70;;;;;;5013378;28;19921;-64
2021/10/16 06:25:58;;;;;;;;;;;6.40;99.70;;;;;;5018635;28;19929;-64
2021/10/16 06:28:24;;;;;;;;;;;6.40;99.70;;;;;;5011496;28;20000;-64
2021/10/16 06:30:49;;;;;;;;;;;6.40;99.80;;;;;;5018582;28;20055;-64
2021/10/16 06:33:15;;;;;;;;;;;6.50;99.80;;;;;;5010088;28;19913;-64
2021/10/16 06:35:43;;;;;;;;;;;6.50;99.80;;;;;;5012110;28;20353;-65
2021/10/16 06:38:09;;;;;;;;;;;6.60;99.80;;;;;;5009311;28;19920;-64
2021/10/16 06:40:34;;;;;;;;;;;6.60;99.80;;;;;;5011320;28;20324;-64
2021/10/16 06:43:00;;;;;;;;;;;6.70;99.70;;;;;;5020147;28;20078;-64
2021/10/16 06:45:26;;;;;;;;;;;6.70;99.80;;;;;;5015601;28;19996;-64
2021/10/16 06:47:51;;;;;;;;;;;6.80;99.70;;;;;;5017831;28;20586;-65
2021/10/16 06:50:17;;;;;;;;;;;6.80;99.70;;;;;;5012917;28;20015;-64
2021/10/16 06:52:42;;;;;;;;;;;6.90;99.70;;;;;;5012403;28;20369;-64
2021/10/16 06:55:08;;;;;;;;;;;6.90;99.60;;;;;;5008942;28;19935;-64
2021/10/16 06:57:34;;;;;;;;;;;7.00;99.60;;;;;;5017260;28;19961;-64
2021/10/16 06:59:59;;;;;;;;;;;7.00;99.50;;;;;;5017911;28;20052;-64
2021/10/16 07:02:25;;;;;;;;;;;7.10;99.60;;;;;;5010876;28;20753;-64
2021/10/16 07:04:50;;;;;;;;;;;7.10;99.50;;;;;;5012330;28;19913;-65
2021/10/16 07:07:16;;;;;;;;;;;7.10;99.40;;;;;;5021216;28;19917;-64
2021/10/16 07:09:42;;;;;;;;;;;7.10;99.40;;;;;;5023882;28;19924;-64
2021/10/16 07:12:09;;;;;;;;;;;7.10;99.30;;;;;;5014606;28;19921;-64
2021/10/16 07:14:35;;;;;;;;;;;7.10;99.30;;;;;;5015512;28;19919;-65
2021/10/16 07:17:00;;;;;;;;;;;7.20;99.30;;;;;;5015700;28;20651;-66
2021/10/16 07:19:26;;;;;;;;;;;7.20;99.20;;;;;;5022120;28;20492;-66
2021/10/16 07:21:51;;;;;;;;;;;7.30;99.20;;;;;;5015774;28;19928;-66
2021/10/16 07:24:17;;;;;;;;;;;7.40;99.20;;;;;;5022519;28;20395;-66
2021/10/16 07:26:43;;;;;;;;;;;7.40;99.10;;;;;;5017304;28;20252;-66
2021/10/16 07:29:08;;;;;;;;;;;7.50;99.10;;;;;;5013734;28;19917;-66
2021/10/16 07:31:34;;;;;;;;;;;7.50;98.90;;;;;;5014641;28;19936;-66
2021/10/16 07:34:00;;;;;;;;;;;7.60;98.90;;;;;;5012969;28;19928;-66
2021/10/16 07:36:28;;;;;;;;;;;7.50;98.60;;;;;;5017125;28;19956;-66
2021/10/16 07:38:53;;;;;;;;;;;7.60;98.60;;;;;;5022096;28;19925;-66
2021/10/16 07:41:19;;;;;;;;;;;7.70;98.60;;;;;;5021207;28;19972;-66
2021/10/16 07:43:44;;;;;;;;;;;7.80;98.50;;;;;;5022566;28;19917;-66
2021/10/16 07:46:10;;;;;;;;;;;7.80;98.40;;;;;;5019110;28;19917;-66
2021/10/16 07:48:35;;;;;;;;;;;8.00;98.50;;;;;;5022066;28;19975;-66
2021/10/16 07:51:01;;;;;;;;;;;7.90;98.10;;;;;;5020213;28;19925;-66
2021/10/16 07:53:26;;;;;;;;;;;7.90;97.80;;;;;;5021494;28;19994;-66
2021/10/16 07:55:52;;;;;;;;;;;8.00;97.70;;;;;;5021230;28;20039;-66
2021/10/16 07:58:19;;;;;;;;;;;8.00;97.60;;;;;;5020948;28;19944;-66
2021/10/16 08:00:45;;;;;;;;;;;8.10;97.50;;;;;;5018052;28;20363;-66
2021/10/16 08:03:10;;;;;;;;;;;8.20;97.60;;;;;;5019621;28;19975;-66
2021/10/16 08:05:36;;;;;;;;;;;8.30;97.60;;;;;;5019775;28;19961;-66
2021/10/16 08:08:01;;;;;;;;;;;8.40;97.40;;;;;;5018634;28;19913;-66
2021/10/16 08:10:27;;;;;;;;;;;8.40;97.20;;;;;;5021839;28;19975;-66
2021/10/16 08:12:53;;;;;;;;;;;8.50;96.90;;;;;;5021611;28;19921;-66
2021/10/16 08:15:18;;;;;;;;;;;8.60;96.90;;;;;;5020194;28;19913;-65
2021/10/16 08:17:44;;;;;;;;;;;8.60;96.80;;;;;;5019088;28;19913;-66
2021/10/16 08:20:10;;;;;;;;;;;8.80;96.70;;;;;;5019028;28;19928;-66
2021/10/16 08:22:41;;;;;;;;;;;8.70;96.30;;;;;;5018531;28;19921;-66
2021/10/16 08:25:07;;;;;;;;;;;8.70;96.00;;;;;;5022533;28;20004;-66
2021/10/16 08:27:32;;;;;;;;;;;8.90;96.30;;;;;;5019368;28;20020;-66
2021/10/16 08:29:57;;;;;;;;;;;8.90;96.00;;;;;;5022199;28;19936;-67
2021/10/16 08:32:23;;;;;;;;;;;9.00;95.80;;;;;;5020626;28;19988;-66
2021/10/16 08:34:49;;;;;;;;;;;9.00;95.60;;;;;;5020418;28;19925;-66
2021/10/16 08:37:14;;;;;;;;;;;9.00;95.50;;;;;;5020010;28;19981;-66
2021/10/16 08:39:40;;;;;;;;;;;9.10;95.40;;;;;;5019885;28;19958;-66
2021/10/16 08:42:05;;;;;;;;;;;9.10;95.40;;;;;;5017890;28;19944;-66
2021/10/16 08:44:31;;;;;;;;;;;9.30;95.50;;;;;;5020473;28;19913;-66
2021/10/16 08:46:57;;;;;;;;;;;9.40;95.30;;;;;;5020893;28;19940;-66
2021/10/16 08:49:24;;;;;;;;;;;9.40;94.80;;;;;;5015474;28;19913;-66
2021/10/16 08:51:49;;;;;;;;;;;9.50;94.70;;;;;;5018549;28;20001;-66
2021/10/16 08:54:15;;;;;;;;;;;9.60;94.90;;;;;;5014827;28;19966;-66
2021/10/16 08:56:40;;;;;;;;;;;9.60;94.60;;;;;;5020216;28;19953;-66
2021/10/16 08:59:06;;;;;;;;;;;9.70;94.40;;;;;;5015068;28;19961;-66
2021/10/16 09:01:31;;;;;;;;;;;9.70;94.00;;;;;;5018413;28;20307;-66
2021/10/16 09:03:58;;;;;;;;;;;9.80;94.00;;;;;;5015726;28;20350;-67
2021/10/16 09:06:27;;;;;;;;;;;9.70;93.50;;;;;;5018867;28;20353;-65
2021/10/16 09:08:57;;;;;;;;;;;9.80;93.40;;;;;;5017803;28;20014;-66
2021/10/16 09:11:44;;;;;;;;;;;10.00;94.10;;;;;;5018895;28;19925;-66
2021/10/16 09:14:16;;;;;;;;;;;10.00;93.00;;;;;;5015363;28;19992;-66
2021/10/16 09:16:43;;;;;;;;;;;10.00;92.80;;;;;;5018640;28;20205;-66
2021/10/16 09:19:24;;;;;;;;;;;10.10;93.10;;;;;;5020263;28;19917;-66
2021/10/16 09:21:55;;;;;;;;;;;10.20;92.40;;;;;;5016737;28;19910;-66
2021/10/16 09:24:31;;;;;;;;;;;10.30;92.60;;;;;;5017307;28;19924;-66
2021/10/16 09:26:58;;;;;;;;;;;10.30;92.50;;;;;;5019867;28;20008;-65
2021/10/16 09:29:28;;;;;;;;;;;10.50;92.30;;;;;;5015697;28;19958;-64
2021/10/16 09:32:14;;;;;;;;;;;10.60;91.60;;;;;;5017196;28;20004;-65
2021/10/16 09:34:41;;;;;;;;;;;10.80;92.10;;;;;;5014639;28;19957;-65
2021/10/16 09:37:12;;;;;;;;;;;10.70;90.30;;;;;;5018699;28;19917;-66
2021/10/16 09:39:38;;;;;;;;;;;10.60;89.60;;;;;;5019798;28;20019;-66
2021/10/16 09:42:06;;;;;;;;;;;10.60;90.10;;;;;;5017595;28;19917;-66
2021/10/16 09:44:32;;;;;;;;;;;10.60;90.10;;;;;;5020902;28;19916;-66
2021/10/16 09:47:21;;;;;;;;;;;10.70;90.70;;;;;;5018927;28;20053;-68
2021/10/16 09:49:47;;;;;;;;;;;10.70;89.90;;;;;;5016925;28;20016;-66
2021/10/16 09:52:15;;;;;;;;;;;10.90;90.00;;;;;;5017999;28;19945;-66
2021/10/16 09:54:41;;;;;;;;;;;11.00;89.30;;;;;;5021221;28;19999;-66
2021/10/16 09:57:09;;;;;;;;;;;11.00;89.00;;;;;;5021818;28;20614;-66
2021/10/16 09:59:35;;;;;;;;;;;10.80;88.80;;;;;;5022350;28;19917;-66
2021/10/16 10:02:02;;;;;;;;;;;11.00;89.90;;;;;;5012629;28;19917;-66
2021/10/16 10:04:30;;;;;;;;;;;11.00;89.00;;;;;;5022787;28;19929;-66
2021/10/16 10:06:56;;;;;;;;;;;11.00;88.70;;;;;;5021233;28;19925;-65
2021/10/16 10:09:22;;;;;;;;;;;11.10;88.80;;;;;;5024188;28;20008;-66
2021/10/16 10:11:51;;;;;;;;;;;11.00;87.90;;;;;;5019431;28;20335;-66
2021/10/16 10:14:18;;;;;;;;;;;11.10;88.30;;;;;;5022728;28;19968;-66
2021/10/16 10:16:44;;;;;;;;;;;11.10;87.50;;;;;;5019048;28;20004;-66
2021/10/16 10:19:11;;;;;;;;;;;11.10;87.80;;;;;;5022586;28;20011;-66
2021/10/16 10:21:37;;;;;;;;;;;11.00;86.60;;;;;;5017497;28;19927;-65
2021/10/16 10:24:04;;;;;;;;;;;11.00;87.20;;;;;;5021937;28;19963;-66
2021/10/16 10:26:31;;;;;;;;;;;11.10;87.70;;;;;;5016290;28;19929;-66
2021/10/16 10:28:58;;;;;;;;;;;11.10;86.50;;;;;;5010584;28;19936;-66
2021/10/16 10:31:42;;;;;;;;;;;11.10;86.10;;;;;;5020687;28;19925;-66
2021/10/16 10:34:11;;;;;;;;;;;11.10;86.50;;;;;;5024354;28;19920;-66
2021/10/16 10:37:03;;;;;;;;;;;11.10;85.10;;;;;;5023166;28;19998;-66
2021/10/16 10:39:35;;;;;;;;;;;11.30;86.20;;;;;;5015025;28;19921;-66
2021/10/16 10:42:00;;;;;;;;;;;11.30;84.20;;;;;;5015300;28;19923;-67
2021/10/16 10:44:52;;;;;;;;;;;11.50;84.50;;;;;;5023556;28;19917;-66
2021/10/16 10:47:25;;;;;;;;;;;11.50;84.10;;;;;;5020441;28;19924;-66
2021/10/16 10:49:51;;;;;;;;;;;11.50;84.10;;;;;;5021988;28;19960;-66
2021/10/16 10:52:17;;;;;;;;;;;11.70;84.20;;;;;;5017514;28;20336;-66
2021/10/16 10:55:10;;;;;;;;;;;11.60;83.20;;;;;;5018898;28;19935;-66
2021/10/16 10:57:58;;;;;;;;;;;11.50;82.80;;;;;;5013314;28;19917;-66
2021/10/16 11:00:44;;;;;;;;;;;11.60;82.90;;;;;;5009908;28;20533;-66
2021/10/16 11:03:39;;;;;;;;;;;11.60;82.00;;;;;;5015712;28;20017;-65
2021/10/16 11:06:08;;;;;;;;;;;11.70;82.80;;;;;;5007102;28;19917;-65
2021/10/16 11:08:35;;;;;;;;;;;11.70;81.20;;;;;;5023272;28;19913;-65
2021/10/16 11:11:01;;;;;;;;;;;11.70;81.00;;;;;;5013738;28;19921;-66
2021/10/16 11:13:27;;;;;;;;;;;11.70;80.50;;;;;;5010610;28;19924;-65
2021/10/16 11:15:57;;;;;;;;;;;11.80;81.10;;;;;;5020811;28;19921;-66
2021/10/16 11:18:22;;;;;;;;;;;11.60;79.10;;;;;;5023511;28;19924;-65
2021/10/16 11:20:48;;;;;;;;;;;11.80;80.00;;;;;;5019310;28;19913;-66
2021/10/16 11:23:17;;;;;;;;;;;12.00;81.50;;;;;;5021091;28;19929;-66
2021/10/16 11:25:54;;;;;;;;;;;12.10;80.40;;;;;;5017039;28;20003;-66
2021/10/16 11:28:19;;;;;;;;;;;12.10;79.90;;;;;;5020479;28;19921;-66
2021/10/16 11:30:45;;;;;;;;;;;12.10;79.40;;;;;;5022259;28;19928;-66
2021/10/16 11:33:12;;;;;;;;;;;12.10;79.70;;;;;;5016527;28;19916;-66
2021/10/16 11:35:39;;;;;;;;;;;12.10;78.10;;;;;;5007096;28;20408;-66
2021/10/16 11:38:05;;;;;;;;;;;12.10;77.80;;;;;;5021737;28;19913;-65
2021/10/16 11:40:32;;;;;;;;;;;12.10;78.20;;;;;;5019660;28;19933;-66
2021/10/16 11:43:08;;;;;;;;;;;12.20;77.40;;;;;;5022241;28;19955;-66
2021/10/16 11:45:35;;;;;;;;;;;12.10;78.00;;;;;;5016443;28;19917;-66
2021/10/16 11:48:05;;;;;;;;;;;12.10;77.20;;;;;;5020659;28;19980;-66
2021/10/16 11:50:34;;;;;;;;;;;12.00;76.60;;;;;;5021893;28;19921;-66
2021/10/16 11:53:14;;;;;;;;;;;12.00;73.80;;;;;;5018901;28;19955;-66
2021/10/16 11:55:40;;;;;;;;;;;11.90;74.30;;;;;;5019336;28;19967;-66
2021/10/16 11:58:07;;;;;;;;;;;12.00;73.70;;;;;;5022047;28;20631;-66
2021/10/16 12:00:34;;;;;;;;;;;12.00;73.40;;;;;;5019160;28;19921;-66
2021/10/16 12:03:06;;;;;;;;;;;12.00;73.20;;;;;;5021590;28;19962;-65
2021/10/16 12:05:31;;;;;;;;;;;12.00;73.10;;;;;;5016107;28;19913;-66
2021/10/16 12:08:10;;;;;;;;;;;12.10;74.10;;;;;;5019380;28;20356;-66
2021/10/16 12:10:37;;;;;;;;;;;12.10;74.80;;;;;;5019628;28;20011;-65
2021/10/16 12:13:06;;;;;;;;;;;12.00;72.30;;;;;;5022681;28;20581;-65
2021/10/16 12:15:33;;;;;;;;;;;12.00;72.50;;;;;;5019993;28;19924;-66
2021/10/16 12:17:59;;;;;;;;;;;12.20;74.60;;;;;;5014053;28;19921;-66
2021/10/16 12:20:25;;;;;;;;;;;12.30;73.60;;;;;;5017942;28;20074;-66
2021/10/16 12:23:09;;;;;;;;;;;12.10;72.30;;;;;;5019432;28;20459;-66
2021/10/16 12:25:44;;;;;;;;;;;12.30;70.60;;;;;;5013384;28;19917;-66
2021/10/16 12:28:10;;;;;;;;;;;12.60;72.90;;;;;;5014863;28;19936;-66
2021/10/16 12:30:35;;;;;;;;;;;12.60;71.50;;;;;;5006708;28;19933;-66
2021/10/16 12:33:02;;;;;;;;;;;12.50;71.00;;;;;;5020715;28;19996;-66
2021/10/16 12:35:27;;;;;;;;;;;12.50;70.40;;;;;;5019003;28;20049;-66
2021/10/16 12:37:59;;;;;;;;;;;12.50;69.40;;;;;;5022391;28;20078;-66
2021/10/16 12:40:35;;;;;;;;;;;12.40;67.60;;;;;;5019604;28;19988;-66
2021/10/16 12:43:01;;;;;;;;;;;12.50;68.10;;;;;;5017344;28;19957;-65
2021/10/16 12:45:37;;;;;;;;;;;12.60;68.20;;;;;;5016227;28;20304;-66
2021/10/16 12:48:41;;;;;;;;;;;12.70;67.90;;;;;;5018844;28;19916;-66
2021/10/16 12:51:07;;;;;;;;;;;12.60;67.00;;;;;;4978744;28;19925;-66
2021/10/16 12:53:52;;;;;;;;;;;12.50;66.30;;;;;;4978030;28;19926;-66
2021/10/16 12:56:23;;;;;;;;;;;12.50;68.40;;;;;;5003104;28;19963;-65
2021/10/16 12:58:49;;;;;;;;;;;12.30;66.90;;;;;;5017848;28;20004;-66
2021/10/16 13:01:15;;;;;;;;;;;12.30;66.60;;;;;;5016944;28;19917;-65
2021/10/16 13:03:40;;;;;;;;;;;12.30;67.60;;;;;;5019970;28;20304;-66
2021/10/16 13:06:06;;;;;;;;;;;12.30;67.80;;;;;;5020282;28;19944;-65
2021/10/16 13:08:31;;;;;;;;;;;12.40;69.70;;;;;;5019868;28;19987;-66
2021/10/16 13:10:57;;;;;;;;;;;12.30;67.50;;;;;;5020962;28;19997;-65
2021/10/16 13:13:23;;;;;;;;;;;12.20;66.40;;;;;;5011230;28;19963;-65
2021/10/16 13:15:48;;;;;;;;;;;12.10;65.20;;;;;;5012723;28;20027;-65
2021/10/16 13:18:14;;;;;;;;;;;12.10;65.30;;;;;;5016102;28;20328;-65
2021/10/16 13:20:39;;;;;;;;;;;12.10;66.90;;;;;;5021506;28;20322;-65
2021/10/16 13:23:05;;;;;;;;;;;12.10;66.90;;;;;;5015075;28;19959;-64
2021/10/16 13:25:31;;;;;;;;;;;12.00;65.10;;;;;;5015121;28;20382;-65
2021/10/16 13:27:56;;;;;;;;;;;12.00;65.80;;;;;;5025477;28;19917;-65
2021/10/16 13:30:22;;;;;;;;;;;12.10;66.40;;;;;;5021853;28;19993;-65
2021/10/16 13:32:48;;;;;;;;;;;12.00;66.90;;;;;;5025398;28;20291;-65
2021/10/16 13:35:14;;;;;;;;;;;12.00;67.30;;;;;;5025191;28;19913;-65
2021/10/16 13:37:39;;;;;;;;;;;12.00;67.60;;;;;;5019912;28;19987;-65
2021/10/16 13:40:05;;;;;;;;;;;11.90;68.60;;;;;;5014367;28;19913;-65
2021/10/16 13:42:31;;;;;;;;;;;11.80;69.20;;;;;;5018765;28;19957;-65
2021/10/16 13:44:57;;;;;;;;;;;11.80;69.00;;;;;;5024764;28;20034;-65
2021/10/16 13:47:26;;;;;;;;;;;11.70;68.80;;;;;;5024177;28;20379;-66
2021/10/16 13:49:52;;;;;;;;;;;11.60;69.60;;;;;;5023846;28;20321;-65
2021/10/16 13:52:17;;;;;;;;;;;11.50;70.00;;;;;;5025718;28;19913;-65
2021/10/16 13:54:43;;;;;;;;;;;11.50;70.40;;;;;;5014988;28;19924;-65
2021/10/16 13:57:09;;;;;;;;;;;11.50;72.10;;;;;;5026763;28;19913;-65
2021/10/16 13:59:34;;;;;;;;;;;11.50;71.60;;;;;;5022241;28;19920;-65
2021/10/16 14:01:59;;;;;;;;;;;11.40;71.40;;;;;;5024035;28;19972;-65
2021/10/16 14:04:28;;;;;;;;;;;11.50;71.70;;;;;;5023366;28;19917;-65
2021/10/16 14:06:54;;;;;;;;;;;11.50;71.90;;;;;;5025126;28;19928;-66
2021/10/16 14:09:19;;;;;;;;;;;11.40;72.60;;;;;;5025135;28;20267;-66
2021/10/16 14:11:45;;;;;;;;;;;11.40;71.20;;;;;;5023594;28;19974;-66
2021/10/16 14:14:11;;;;;;;;;;;11.40;71.60;;;;;;5025671;28;20512;-65
2021/10/16 14:16:36;;;;;;;;;;;11.40;72.50;;;;;;5021948;28;20055;-66
2021/10/16 14:19:02;;;;;;;;;;;11.40;73.10;;;;;;5019194;28;20016;-65
2021/10/16 14:21:27;;;;;;;;;;;11.30;73.50;;;;;;5021379;28;20358;-65
2021/10/16 14:23:53;;;;;;;;;;;11.40;73.00;;;;;;5021967;28;19914;-65
2021/10/16 14:26:18;;;;;;;;;;;11.30;74.60;;;;;;5024112;28;19935;-66